sensor_id;sensor_type;location;lat;lon;timestamp;pressure;altitude;pressure_sealevel;temperature
21336;BMP180;69435;52.670;13.544;2023-05-10T00:00:40;100669.00;;;15.40
21336;BMP180;69435;52.670;13.544;2023-05-10T00:03:26;100625.00;;;15.40
21336;BMP180;69435;52.670;13.544;2023-05-10T00:06:12;100662.00;;;15.40
21336;BMP180;69435;52.670;13.544;2023-05-10T00:08:58;100666.00;;;15.40
21336;BMP180;69435;52.670;13.544;2023-05-10T00:11:44;100651.00;;;15.40
21336;BMP180;69435;52.670;13.544;2023-05-10T00:14:30;100659.00;;;15.30
21336;BMP180;69435;52.670;13.544;2023-05-10T00:17:16;100642.00;;;15.30
21336;BMP180;69435;52.670;13.544;2023-05-10T00:20:02;100654.00;;;15.20
21336;BMP180;69435;52.670;13.544;2023-05-10T00:22:50;100654.00;;;15.20
21336;BMP180;69435;52.670;13.544;2023-05-10T00:25:36;100648.00;;;15.20
21336;BMP180;69435;52.670;13.544;2023-05-10T00:28:22;100635.00;;;15.20
21336;BMP180;69435;52.670;13.544;2023-05-10T00:31:08;100645.00;;;15.10
21336;BMP180;69435;52.670;13.544;2023-05-10T00:33:55;100639.00;;;15.10
21336;BMP180;69435;52.670;13.544;2023-05-10T00:36:41;100634.00;;;15.10
21336;BMP180;69435;52.670;13.544;2023-05-10T00:39:27;100639.00;;;15.10
21336;BMP180;69435;52.670;13.544;2023-05-10T00:42:14;100632.00;;;15.00
21336;BMP180;69435;52.670;13.544;2023-05-10T00:45:00;100623.00;;;15.00
21336;BMP180;69435;52.670;13.544;2023-05-10T00:47:47;100623.00;;;15.00
21336;BMP180;69435;52.670;13.544;2023-05-10T00:50:33;100617.00;;;14.90
21336;BMP180;69435;52.670;13.544;2023-05-10T00:53:19;100622.00;;;14.90
21336;BMP180;69435;52.670;13.544;2023-05-10T00:56:05;100617.00;;;14.80
21336;BMP180;69435;52.670;13.544;2023-05-10T00:58:52;100604.00;;;14.80
21336;BMP180;69435;52.670;13.544;2023-05-10T01:01:38;100606.00;;;14.80
21336;BMP180;69435;52.670;13.544;2023-05-10T01:04:24;100573.00;;;14.70
21336;BMP180;69435;52.670;13.544;2023-05-10T01:07:14;100601.00;;;14.60
21336;BMP180;69435;52.670;13.544;2023-05-10T01:10:00;100606.00;;;14.60
21336;BMP180;69435;52.670;13.544;2023-05-10T01:12:47;100605.00;;;14.60
21336;BMP180;69435;52.670;13.544;2023-05-10T01:15:33;100598.00;;;14.60
21336;BMP180;69435;52.670;13.544;2023-05-10T01:18:21;100565.00;;;14.60
21336;BMP180;69435;52.670;13.544;2023-05-10T01:21:41;100587.00;;;14.60
21336;BMP180;69435;52.670;13.544;2023-05-10T01:25:02;100580.00;;;14.60
21336;BMP180;69435;52.670;13.544;2023-05-10T01:34:27;100588.00;;;14.50
21336;BMP180;69435;52.670;13.544;2023-05-10T01:37:27;100560.00;;;14.50
21336;BMP180;69435;52.670;13.544;2023-05-10T01:40:30;100572.00;;;14.50
21336;BMP180;69435;52.670;13.544;2023-05-10T01:43:26;100558.00;;;14.50
21336;BMP180;69435;52.670;13.544;2023-05-10T01:46:22;100544.00;;;14.50
21336;BMP180;69435;52.670;13.544;2023-05-10T01:49:23;100580.00;;;14.40
21336;BMP180;69435;52.670;13.544;2023-05-10T01:52:14;100573.00;;;14.40
21336;BMP180;69435;52.670;13.544;2023-05-10T01:55:16;100571.00;;;14.40
21336;BMP180;69435;52.670;13.544;2023-05-10T01:58:10;100568.00;;;14.40
21336;BMP180;69435;52.670;13.544;2023-05-10T02:01:03;100562.00;;;14.40
21336;BMP180;69435;52.670;13.544;2023-05-10T02:03:51;100570.00;;;14.30
21336;BMP180;69435;52.670;13.544;2023-05-10T02:06:39;100560.00;;;14.30
21336;BMP180;69435;52.670;13.544;2023-05-10T02:09:27;100550.00;;;14.30
21336;BMP180;69435;52.670;13.544;2023-05-10T02:12:17;100563.00;;;14.20
21336;BMP180;69435;52.670;13.544;2023-05-10T02:15:06;100543.00;;;14.20
21336;BMP180;69435;52.670;13.544;2023-05-10T02:17:56;100557.00;;;14.20
21336;BMP180;69435;52.670;13.544;2023-05-10T02:20:46;100529.00;;;14.20
21336;BMP180;69435;52.670;13.544;2023-05-10T02:23:34;100558.00;;;14.20
21336;BMP180;69435;52.670;13.544;2023-05-10T02:26:23;100549.00;;;14.20
21336;BMP180;69435;52.670;13.544;2023-05-10T02:29:12;100556.00;;;14.20
21336;BMP180;69435;52.670;13.544;2023-05-10T02:31:59;100562.00;;;14.10
21336;BMP180;69435;52.670;13.544;2023-05-10T02:34:46;100532.00;;;14.10
21336;BMP180;69435;52.670;13.544;2023-05-10T02:37:38;100544.00;;;14.10
21336;BMP180;69435;52.670;13.544;2023-05-10T02:40:27;100557.00;;;14.10
21336;BMP180;69435;52.670;13.544;2023-05-10T02:43:16;100551.00;;;14.10
21336;BMP180;69435;52.670;13.544;2023-05-10T02:46:04;100552.00;;;14.10
21336;BMP180;69435;52.670;13.544;2023-05-10T02:48:50;100546.00;;;14.10
21336;BMP180;69435;52.670;13.544;2023-05-10T02:51:41;100544.00;;;14.10
21336;BMP180;69435;52.670;13.544;2023-05-10T02:54:33;100547.00;;;14.10
21336;BMP180;69435;52.670;13.544;2023-05-10T02:57:32;100551.00;;;14.10
21336;BMP180;69435;52.670;13.544;2023-05-10T03:00:19;100528.00;;;14.00
21336;BMP180;69435;52.670;13.544;2023-05-10T03:03:06;100530.00;;;14.00
21336;BMP180;69435;52.670;13.544;2023-05-10T03:05:52;100530.00;;;14.00
21336;BMP180;69435;52.670;13.544;2023-05-10T03:08:43;100531.00;;;13.90
21336;BMP180;69435;52.670;13.544;2023-05-10T03:12:11;100513.00;;;14.00
21336;BMP180;69435;52.670;13.544;2023-05-10T03:15:22;100549.00;;;14.00
21336;BMP180;69435;52.670;13.544;2023-05-10T03:18:40;100549.00;;;14.00
21336;BMP180;69435;52.670;13.544;2023-05-10T03:21:29;100549.00;;;13.90
21336;BMP180;69435;52.670;13.544;2023-05-10T03:24:22;100537.00;;;13.90
21336;BMP180;69435;52.670;13.544;2023-05-10T03:27:09;100546.00;;;13.90
21336;BMP180;69435;52.670;13.544;2023-05-10T03:29:56;100539.00;;;13.90
21336;BMP180;69435;52.670;13.544;2023-05-10T03:32:43;100538.00;;;13.90
21336;BMP180;69435;52.670;13.544;2023-05-10T03:35:29;100524.00;;;13.90
21336;BMP180;69435;52.670;13.544;2023-05-10T03:38:15;100549.00;;;13.90
21336;BMP180;69435;52.670;13.544;2023-05-10T03:41:01;100542.00;;;13.90
21336;BMP180;69435;52.670;13.544;2023-05-10T03:43:47;100534.00;;;13.90
21336;BMP180;69435;52.670;13.544;2023-05-10T03:46:33;100503.00;;;13.80
21336;BMP180;69435;52.670;13.544;2023-05-10T03:49:19;100522.00;;;13.80
21336;BMP180;69435;52.670;13.544;2023-05-10T03:52:04;100522.00;;;13.80
21336;BMP180;69435;52.670;13.544;2023-05-10T03:54:51;100537.00;;;13.80
21336;BMP180;69435;52.670;13.544;2023-05-10T03:57:37;100495.00;;;13.80
21336;BMP180;69435;52.670;13.544;2023-05-10T04:00:23;100494.00;;;13.80
21336;BMP180;69435;52.670;13.544;2023-05-10T04:03:09;100530.00;;;13.80
21336;BMP180;69435;52.670;13.544;2023-05-10T04:06:02;100532.00;;;13.80
21336;BMP180;69435;52.670;13.544;2023-05-10T04:08:48;100530.00;;;13.80
21336;BMP180;69435;52.670;13.544;2023-05-10T04:11:34;100515.00;;;13.80
21336;BMP180;69435;52.670;13.544;2023-05-10T04:14:20;100521.00;;;13.90
21336;BMP180;69435;52.670;13.544;2023-05-10T04:17:06;100498.00;;;13.90
21336;BMP180;69435;52.670;13.544;2023-05-10T04:19:52;100524.00;;;13.90
21336;BMP180;69435;52.670;13.544;2023-05-10T04:22:40;100517.00;;;13.90
21336;BMP180;69435;52.670;13.544;2023-05-10T04:25:26;100527.00;;;14.00
21336;BMP180;69435;52.670;13.544;2023-05-10T04:28:12;100524.00;;;14.10
21336;BMP180;69435;52.670;13.544;2023-05-10T04:31:07;100517.00;;;14.20
21336;BMP180;69435;52.670;13.544;2023-05-10T04:33:53;100507.00;;;14.20
21336;BMP180;69435;52.670;13.544;2023-05-10T04:36:39;100522.00;;;14.20
21336;BMP180;69435;52.670;13.544;2023-05-10T04:39:25;100529.00;;;14.30
21336;BMP180;69435;52.670;13.544;2023-05-10T04:42:11;100515.00;;;14.30
21336;BMP180;69435;52.670;13.544;2023-05-10T04:44:57;100521.00;;;14.40
21336;BMP180;69435;52.670;13.544;2023-05-10T04:47:43;100512.00;;;14.50
21336;BMP180;69435;52.670;13.544;2023-05-10T04:50:29;100518.00;;;14.60
21336;BMP180;69435;52.670;13.544;2023-05-10T04:53:15;100523.00;;;14.70
21336;BMP180;69435;52.670;13.544;2023-05-10T04:56:01;100510.00;;;14.80
21336;BMP180;69435;52.670;13.544;2023-05-10T04:58:47;100515.00;;;14.80
21336;BMP180;69435;52.670;13.544;2023-05-10T05:01:33;100505.00;;;14.90
21336;BMP180;69435;52.670;13.544;2023-05-10T05:04:19;100513.00;;;15.00
21336;BMP180;69435;52.670;13.544;2023-05-10T05:07:05;100485.00;;;15.10
21336;BMP180;69435;52.670;13.544;2023-05-10T05:09:51;100497.00;;;15.20
21336;BMP180;69435;52.670;13.544;2023-05-10T05:12:36;100504.00;;;15.20
21336;BMP180;69435;52.670;13.544;2023-05-10T05:15:22;100496.00;;;15.30
21336;BMP180;69435;52.670;13.544;2023-05-10T05:18:09;100505.00;;;15.40
21336;BMP180;69435;52.670;13.544;2023-05-10T05:20:55;100515.00;;;15.60
21336;BMP180;69435;52.670;13.544;2023-05-10T05:23:41;100500.00;;;15.70
21336;BMP180;69435;52.670;13.544;2023-05-10T05:26:27;100483.00;;;15.90
21336;BMP180;69435;52.670;13.544;2023-05-10T05:29:13;100491.00;;;16.10
21336;BMP180;69435;52.670;13.544;2023-05-10T05:32:00;100505.00;;;16.30
21336;BMP180;69435;52.670;13.544;2023-05-10T05:34:47;100493.00;;;16.40
21336;BMP180;69435;52.670;13.544;2023-05-10T05:37:33;100513.00;;;16.50
21336;BMP180;69435;52.670;13.544;2023-05-10T05:40:19;100504.00;;;16.70
21336;BMP180;69435;52.670;13.544;2023-05-10T05:43:06;100510.00;;;16.70
21336;BMP180;69435;52.670;13.544;2023-05-10T05:45:52;100487.00;;;16.80
21336;BMP180;69435;52.670;13.544;2023-05-10T05:48:39;100504.00;;;16.90
21336;BMP180;69435;52.670;13.544;2023-05-10T05:51:26;100489.00;;;17.00
21336;BMP180;69435;52.670;13.544;2023-05-10T05:54:12;100503.00;;;17.10
21336;BMP180;69435;52.670;13.544;2023-05-10T05:56:59;100512.00;;;17.10
21336;BMP180;69435;52.670;13.544;2023-05-10T05:59:45;100490.00;;;17.20
21336;BMP180;69435;52.670;13.544;2023-05-10T06:02:31;100497.00;;;17.30
21336;BMP180;69435;52.670;13.544;2023-05-10T06:05:17;100489.00;;;17.40
21336;BMP180;69435;52.670;13.544;2023-05-10T06:08:04;100504.00;;;17.50
21336;BMP180;69435;52.670;13.544;2023-05-10T06:10:50;100478.00;;;17.60
21336;BMP180;69435;52.670;13.544;2023-05-10T06:13:36;100508.00;;;17.70
21336;BMP180;69435;52.670;13.544;2023-05-10T06:16:22;100507.00;;;17.90
21336;BMP180;69435;52.670;13.544;2023-05-10T06:19:09;100506.00;;;17.90
21336;BMP180;69435;52.670;13.544;2023-05-10T06:21:55;100504.00;;;18.00
21336;BMP180;69435;52.670;13.544;2023-05-10T06:24:41;100484.00;;;18.10
21336;BMP180;69435;52.670;13.544;2023-05-10T06:27:27;100497.00;;;18.20
21336;BMP180;69435;52.670;13.544;2023-05-10T06:30:13;100426.00;;;18.20
21336;BMP180;69435;52.670;13.544;2023-05-10T06:33:00;100498.00;;;18.30
21336;BMP180;69435;52.670;13.544;2023-05-10T06:35:46;100487.00;;;18.40
21336;BMP180;69435;52.670;13.544;2023-05-10T06:38:32;100478.00;;;18.50
21336;BMP180;69435;52.670;13.544;2023-05-10T06:41:19;100501.00;;;18.60
21336;BMP180;69435;52.670;13.544;2023-05-10T06:44:04;100503.00;;;18.70
21336;BMP180;69435;52.670;13.544;2023-05-10T06:46:50;100508.00;;;18.80
21336;BMP180;69435;52.670;13.544;2023-05-10T06:49:38;100493.00;;;19.00
21336;BMP180;69435;52.670;13.544;2023-05-10T06:52:24;100503.00;;;19.10
21336;BMP180;69435;52.670;13.544;2023-05-10T06:55:10;100496.00;;;19.20
21336;BMP180;69435;52.670;13.544;2023-05-10T06:57:56;100499.00;;;19.30
21336;BMP180;69435;52.670;13.544;2023-05-10T07:00:42;100495.00;;;19.30
21336;BMP180;69435;52.670;13.544;2023-05-10T07:03:29;100495.00;;;19.30
21336;BMP180;69435;52.670;13.544;2023-05-10T07:06:15;100500.00;;;19.30
21336;BMP180;69435;52.670;13.544;2023-05-10T07:09:01;100500.00;;;19.40
21336;BMP180;69435;52.670;13.544;2023-05-10T07:11:47;100473.00;;;19.50
21336;BMP180;69435;52.670;13.544;2023-05-10T07:14:33;100478.00;;;19.70
21336;BMP180;69435;52.670;13.544;2023-05-10T07:17:19;100473.00;;;20.10
21336;BMP180;69435;52.670;13.544;2023-05-10T07:20:08;100470.00;;;20.80
21336;BMP180;69435;52.670;13.544;2023-05-10T07:22:54;100477.00;;;21.60
21336;BMP180;69435;52.670;13.544;2023-05-10T07:25:40;100474.00;;;22.50
21336;BMP180;69435;52.670;13.544;2023-05-10T07:28:26;100455.00;;;23.70
21336;BMP180;69435;52.670;13.544;2023-05-10T07:31:14;100472.00;;;24.80
21336;BMP180;69435;52.670;13.544;2023-05-10T07:34:00;100475.00;;;25.80
21336;BMP180;69435;52.670;13.544;2023-05-10T07:36:46;100483.00;;;26.40
21336;BMP180;69435;52.670;13.544;2023-05-10T07:39:32;100480.00;;;26.90
21336;BMP180;69435;52.670;13.544;2023-05-10T07:42:18;100475.00;;;27.30
21336;BMP180;69435;52.670;13.544;2023-05-10T07:45:05;100491.00;;;27.90
21336;BMP180;69435;52.670;13.544;2023-05-10T07:47:51;100481.00;;;28.40
21336;BMP180;69435;52.670;13.544;2023-05-10T07:50:37;100482.00;;;28.80
21336;BMP180;69435;52.670;13.544;2023-05-10T07:53:23;100490.00;;;28.90
21336;BMP180;69435;52.670;13.544;2023-05-10T07:56:31;100482.00;;;29.30
21336;BMP180;69435;52.670;13.544;2023-05-10T07:59:17;100482.00;;;29.40
21336;BMP180;69435;52.670;13.544;2023-05-10T08:02:03;100479.00;;;29.40
21336;BMP180;69435;52.670;13.544;2023-05-10T08:04:49;100478.00;;;29.50
21336;BMP180;69435;52.670;13.544;2023-05-10T08:07:35;100475.00;;;29.90
21336;BMP180;69435;52.670;13.544;2023-05-10T08:10:23;100476.00;;;30.30
21336;BMP180;69435;52.670;13.544;2023-05-10T08:13:10;100471.00;;;30.80
21336;BMP180;69435;52.670;13.544;2023-05-10T08:15:58;100475.00;;;31.20
21336;BMP180;69435;52.670;13.544;2023-05-10T08:18:45;100476.00;;;31.60
21336;BMP180;69435;52.670;13.544;2023-05-10T08:21:32;100472.00;;;31.80
21336;BMP180;69435;52.670;13.544;2023-05-10T08:24:18;100479.00;;;32.10
21336;BMP180;69435;52.670;13.544;2023-05-10T08:27:05;100483.00;;;32.30
21336;BMP180;69435;52.670;13.544;2023-05-10T08:29:51;100481.00;;;32.40
21336;BMP180;69435;52.670;13.544;2023-05-10T08:32:37;100482.00;;;32.10
21336;BMP180;69435;52.670;13.544;2023-05-10T08:35:23;100483.00;;;32.00
21336;BMP180;69435;52.670;13.544;2023-05-10T08:38:10;100484.00;;;32.10
21336;BMP180;69435;52.670;13.544;2023-05-10T08:40:56;100497.00;;;32.20
21336;BMP180;69435;52.670;13.544;2023-05-10T08:43:43;100491.00;;;32.20
21336;BMP180;69435;52.670;13.544;2023-05-10T08:46:34;100483.00;;;32.30
21336;BMP180;69435;52.670;13.544;2023-05-10T08:49:25;100488.00;;;32.40
21336;BMP180;69435;52.670;13.544;2023-05-10T08:52:14;100474.00;;;32.40
21336;BMP180;69435;52.670;13.544;2023-05-10T08:55:01;100497.00;;;32.30
21336;BMP180;69435;52.670;13.544;2023-05-10T08:57:48;100492.00;;;32.10
21336;BMP180;69435;52.670;13.544;2023-05-10T09:00:34;100484.00;;;31.90
21336;BMP180;69435;52.670;13.544;2023-05-10T09:03:20;100482.00;;;31.80
21336;BMP180;69435;52.670;13.544;2023-05-10T09:06:06;100479.00;;;31.80
21336;BMP180;69435;52.670;13.544;2023-05-10T09:08:53;100494.00;;;31.70
21336;BMP180;69435;52.670;13.544;2023-05-10T09:11:39;100482.00;;;31.80
21336;BMP180;69435;52.670;13.544;2023-05-10T09:14:26;100488.00;;;31.80
21336;BMP180;69435;52.670;13.544;2023-05-10T09:17:12;100482.00;;;31.70
21336;BMP180;69435;52.670;13.544;2023-05-10T09:20:00;100487.00;;;31.90
21336;BMP180;69435;52.670;13.544;2023-05-10T09:22:46;100476.00;;;32.10
21336;BMP180;69435;52.670;13.544;2023-05-10T09:25:35;100490.00;;;32.50
21336;BMP180;69435;52.670;13.544;2023-05-10T09:28:22;100485.00;;;32.80
21336;BMP180;69435;52.670;13.544;2023-05-10T09:31:08;100475.00;;;32.90
21336;BMP180;69435;52.670;13.544;2023-05-10T09:33:54;100498.00;;;33.10
21336;BMP180;69435;52.670;13.544;2023-05-10T09:36:58;100495.00;;;33.20
21336;BMP180;69435;52.670;13.544;2023-05-10T09:39:46;100485.00;;;32.90
21336;BMP180;69435;52.670;13.544;2023-05-10T09:42:33;100505.00;;;32.60
21336;BMP180;69435;52.670;13.544;2023-05-10T09:45:19;100492.00;;;32.40
21336;BMP180;69435;52.670;13.544;2023-05-10T09:48:07;100506.00;;;32.30
21336;BMP180;69435;52.670;13.544;2023-05-10T09:50:57;100511.00;;;32.20
21336;BMP180;69435;52.670;13.544;2023-05-10T09:53:43;100498.00;;;32.10
21336;BMP180;69435;52.670;13.544;2023-05-10T09:56:36;100469.00;;;32.40
21336;BMP180;69435;52.670;13.544;2023-05-10T09:59:28;100507.00;;;32.70
21336;BMP180;69435;52.670;13.544;2023-05-10T10:02:15;100500.00;;;32.90
21336;BMP180;69435;52.670;13.544;2023-05-10T10:05:02;100493.00;;;33.00
21336;BMP180;69435;52.670;13.544;2023-05-10T10:07:51;100487.00;;;33.10
21336;BMP180;69435;52.670;13.544;2023-05-10T10:10:38;100484.00;;;33.10
21336;BMP180;69435;52.670;13.544;2023-05-10T10:13:26;100493.00;;;33.30
21336;BMP180;69435;52.670;13.544;2023-05-10T10:16:12;100494.00;;;33.40
21336;BMP180;69435;52.670;13.544;2023-05-10T10:18:58;100504.00;;;33.50
21336;BMP180;69435;52.670;13.544;2023-05-10T10:21:44;100484.00;;;33.40
21336;BMP180;69435;52.670;13.544;2023-05-10T10:24:30;100496.00;;;33.40
21336;BMP180;69435;52.670;13.544;2023-05-10T10:30:45;100496.00;;;33.00
21336;BMP180;69435;52.670;13.544;2023-05-10T10:34:01;100492.00;;;33.00
21336;BMP180;69435;52.670;13.544;2023-05-10T10:36:49;100493.00;;;32.90
21336;BMP180;69435;52.670;13.544;2023-05-10T10:39:35;100477.00;;;32.80
21336;BMP180;69435;52.670;13.544;2023-05-10T10:42:44;100483.00;;;32.90
21336;BMP180;69435;52.670;13.544;2023-05-10T10:45:39;100489.00;;;32.80
21336;BMP180;69435;52.670;13.544;2023-05-10T10:48:26;100488.00;;;32.70
21336;BMP180;69435;52.670;13.544;2023-05-10T10:51:13;100491.00;;;32.70
21336;BMP180;69435;52.670;13.544;2023-05-10T10:54:11;100490.00;;;32.80
21336;BMP180;69435;52.670;13.544;2023-05-10T10:57:12;100483.00;;;32.80
21336;BMP180;69435;52.670;13.544;2023-05-10T11:03:13;100496.00;;;32.70
21336;BMP180;69435;52.670;13.544;2023-05-10T11:06:07;100494.00;;;32.70
21336;BMP180;69435;52.670;13.544;2023-05-10T11:08:54;100480.00;;;32.50
21336;BMP180;69435;52.670;13.544;2023-05-10T11:11:54;100504.00;;;32.40
21336;BMP180;69435;52.670;13.544;2023-05-10T11:14:50;100490.00;;;32.30
21336;BMP180;69435;52.670;13.544;2023-05-10T11:17:36;100482.00;;;32.20
21336;BMP180;69435;52.670;13.544;2023-05-10T11:20:22;100494.00;;;32.20
21336;BMP180;69435;52.670;13.544;2023-05-10T11:23:13;100488.00;;;32.20
21336;BMP180;69435;52.670;13.544;2023-05-10T11:26:01;100484.00;;;32.10
21336;BMP180;69435;52.670;13.544;2023-05-10T11:28:48;100491.00;;;32.00
21336;BMP180;69435;52.670;13.544;2023-05-10T11:31:35;100492.00;;;31.90
21336;BMP180;69435;52.670;13.544;2023-05-10T11:34:30;100488.00;;;31.80
21336;BMP180;69435;52.670;13.544;2023-05-10T11:37:18;100487.00;;;31.80
21336;BMP180;69435;52.670;13.544;2023-05-10T11:40:04;100481.00;;;31.70
21336;BMP180;69435;52.670;13.544;2023-05-10T11:42:51;100467.00;;;31.70
21336;BMP180;69435;52.670;13.544;2023-05-10T11:45:38;100462.00;;;31.60
21336;BMP180;69435;52.670;13.544;2023-05-10T11:48:24;100477.00;;;31.60
21336;BMP180;69435;52.670;13.544;2023-05-10T11:51:11;100481.00;;;31.50
21336;BMP180;69435;52.670;13.544;2023-05-10T11:53:57;100483.00;;;31.30
21336;BMP180;69435;52.670;13.544;2023-05-10T11:56:43;100479.00;;;31.00
21336;BMP180;69435;52.670;13.544;2023-05-10T11:59:29;100476.00;;;31.00
21336;BMP180;69435;52.670;13.544;2023-05-10T12:02:15;100493.00;;;30.80
21336;BMP180;69435;52.670;13.544;2023-05-10T12:05:03;100483.00;;;30.60
21336;BMP180;69435;52.670;13.544;2023-05-10T12:07:50;100470.00;;;30.30
21336;BMP180;69435;52.670;13.544;2023-05-10T12:10:37;100463.00;;;30.10
21336;BMP180;69435;52.670;13.544;2023-05-10T12:13:22;100481.00;;;30.10
21336;BMP180;69435;52.670;13.544;2023-05-10T12:16:23;100497.00;;;30.20
21336;BMP180;69435;52.670;13.544;2023-05-10T12:19:09;100492.00;;;30.00
21336;BMP180;69435;52.670;13.544;2023-05-10T12:21:55;100497.00;;;30.00
21336;BMP180;69435;52.670;13.544;2023-05-10T12:24:41;100488.00;;;30.20
21336;BMP180;69435;52.670;13.544;2023-05-10T12:27:32;100489.00;;;30.30
21336;BMP180;69435;52.670;13.544;2023-05-10T12:30:26;100497.00;;;30.30
21336;BMP180;69435;52.670;13.544;2023-05-10T12:33:14;100485.00;;;30.10
21336;BMP180;69435;52.670;13.544;2023-05-10T12:36:03;100496.00;;;30.00
21336;BMP180;69435;52.670;13.544;2023-05-10T12:38:49;100500.00;;;30.00
21336;BMP180;69435;52.670;13.544;2023-05-10T12:41:35;100489.00;;;29.90
21336;BMP180;69435;52.670;13.544;2023-05-10T12:44:21;100479.00;;;29.90
21336;BMP180;69435;52.670;13.544;2023-05-10T12:47:07;100493.00;;;29.90
21336;BMP180;69435;52.670;13.544;2023-05-10T12:49:53;100501.00;;;30.00
21336;BMP180;69435;52.670;13.544;2023-05-10T12:52:39;100493.00;;;30.10
21336;BMP180;69435;52.670;13.544;2023-05-10T12:55:25;100508.00;;;30.10
21336;BMP180;69435;52.670;13.544;2023-05-10T12:58:11;100477.00;;;30.00
21336;BMP180;69435;52.670;13.544;2023-05-10T13:00:59;100494.00;;;29.90
21336;BMP180;69435;52.670;13.544;2023-05-10T13:03:45;100496.00;;;29.90
21336;BMP180;69435;52.670;13.544;2023-05-10T13:06:31;100498.00;;;29.90
21336;BMP180;69435;52.670;13.544;2023-05-10T13:09:17;100482.00;;;29.80
21336;BMP180;69435;52.670;13.544;2023-05-10T13:12:03;100484.00;;;29.80
21336;BMP180;69435;52.670;13.544;2023-05-10T13:14:49;100488.00;;;29.80
21336;BMP180;69435;52.670;13.544;2023-05-10T13:17:35;100489.00;;;29.90
21336;BMP180;69435;52.670;13.544;2023-05-10T13:20:21;100480.00;;;29.90
21336;BMP180;69435;52.670;13.544;2023-05-10T13:23:07;100477.00;;;29.90
21336;BMP180;69435;52.670;13.544;2023-05-10T13:25:53;100480.00;;;29.90
21336;BMP180;69435;52.670;13.544;2023-05-10T13:28:39;100483.00;;;29.90
21336;BMP180;69435;52.670;13.544;2023-05-10T13:31:26;100460.00;;;29.80
21336;BMP180;69435;52.670;13.544;2023-05-10T13:34:12;100476.00;;;29.80
21336;BMP180;69435;52.670;13.544;2023-05-10T13:36:58;100467.00;;;29.70
21336;BMP180;69435;52.670;13.544;2023-05-10T13:39:44;100449.00;;;29.70
21336;BMP180;69435;52.670;13.544;2023-05-10T13:42:30;100470.00;;;29.70
21336;BMP180;69435;52.670;13.544;2023-05-10T13:45:17;100460.00;;;29.70
21336;BMP180;69435;52.670;13.544;2023-05-10T13:48:03;100472.00;;;29.60
21336;BMP180;69435;52.670;13.544;2023-05-10T13:50:49;100473.00;;;29.60
21336;BMP180;69435;52.670;13.544;2023-05-10T13:53:35;100476.00;;;29.50
21336;BMP180;69435;52.670;13.544;2023-05-10T13:56:22;100468.00;;;29.50
21336;BMP180;69435;52.670;13.544;2023-05-10T13:59:08;100465.00;;;29.50
21336;BMP180;69435;52.670;13.544;2023-05-10T14:01:53;100459.00;;;29.50
21336;BMP180;69435;52.670;13.544;2023-05-10T14:04:40;100447.00;;;29.50
21336;BMP180;69435;52.670;13.544;2023-05-10T14:07:26;100458.00;;;29.50
21336;BMP180;69435;52.670;13.544;2023-05-10T14:10:11;100444.00;;;29.40
21336;BMP180;69435;52.670;13.544;2023-05-10T14:13:00;100457.00;;;29.40
21336;BMP180;69435;52.670;13.544;2023-05-10T14:15:46;100463.00;;;29.30
21336;BMP180;69435;52.670;13.544;2023-05-10T14:18:32;100469.00;;;29.30
21336;BMP180;69435;52.670;13.544;2023-05-10T14:21:18;100467.00;;;29.20
21336;BMP180;69435;52.670;13.544;2023-05-10T14:24:04;100466.00;;;29.00
21336;BMP180;69435;52.670;13.544;2023-05-10T14:26:52;100457.00;;;28.80
21336;BMP180;69435;52.670;13.544;2023-05-10T14:29:39;100454.00;;;28.70
21336;BMP180;69435;52.670;13.544;2023-05-10T14:32:25;100451.00;;;28.60
21336;BMP180;69435;52.670;13.544;2023-05-10T14:35:15;100450.00;;;28.50
21336;BMP180;69435;52.670;13.544;2023-05-10T14:38:04;100465.00;;;28.50
21336;BMP180;69435;52.670;13.544;2023-05-10T14:40:51;100454.00;;;28.40
21336;BMP180;69435;52.670;13.544;2023-05-10T14:43:37;100462.00;;;28.20
21336;BMP180;69435;52.670;13.544;2023-05-10T14:46:23;100452.00;;;28.10
21336;BMP180;69435;52.670;13.544;2023-05-10T14:49:09;100465.00;;;28.00
21336;BMP180;69435;52.670;13.544;2023-05-10T14:51:55;100445.00;;;27.90
21336;BMP180;69435;52.670;13.544;2023-05-10T14:54:41;100459.00;;;27.90
21336;BMP180;69435;52.670;13.544;2023-05-10T14:57:27;100445.00;;;27.90
21336;BMP180;69435;52.670;13.544;2023-05-10T15:00:15;100446.00;;;27.90
21336;BMP180;69435;52.670;13.544;2023-05-10T15:03:02;100443.00;;;27.90
21336;BMP180;69435;52.670;13.544;2023-05-10T15:05:48;100446.00;;;27.90
21336;BMP180;69435;52.670;13.544;2023-05-10T15:08:34;100426.00;;;27.80
21336;BMP180;69435;52.670;13.544;2023-05-10T15:11:20;100449.00;;;27.80
21336;BMP180;69435;52.670;13.544;2023-05-10T15:14:06;100411.00;;;27.80
21336;BMP180;69435;52.670;13.544;2023-05-10T15:16:52;100442.00;;;27.70
21336;BMP180;69435;52.670;13.544;2023-05-10T15:19:38;100431.00;;;27.80
21336;BMP180;69435;52.670;13.544;2023-05-10T15:22:24;100453.00;;;27.80
21336;BMP180;69435;52.670;13.544;2023-05-10T15:25:10;100457.00;;;27.80
21336;BMP180;69435;52.670;13.544;2023-05-10T15:27:56;100461.00;;;27.90
21336;BMP180;69435;52.670;13.544;2023-05-10T15:30:41;100444.00;;;27.90
21336;BMP180;69435;52.670;13.544;2023-05-10T15:33:28;100447.00;;;27.90
21336;BMP180;69435;52.670;13.544;2023-05-10T15:36:14;100459.00;;;27.90
21336;BMP180;69435;52.670;13.544;2023-05-10T15:39:00;100449.00;;;27.80
21336;BMP180;69435;52.670;13.544;2023-05-10T15:41:46;100446.00;;;27.80
21336;BMP180;69435;52.670;13.544;2023-05-10T15:44:34;100452.00;;;27.70
21336;BMP180;69435;52.670;13.544;2023-05-10T15:47:20;100432.00;;;27.70
21336;BMP180;69435;52.670;13.544;2023-05-10T15:50:07;100450.00;;;27.60
21336;BMP180;69435;52.670;13.544;2023-05-10T15:52:54;100458.00;;;27.60